UAL133 PKWA-PKMJ
Flight info
| Callsign | UAL133 |
|---|---|
| Flight time | 0h 45m |
| Altitude | 29000 |
| Route | CURCH WOZTI |
| Aircraft | B38M/M-SDE1FGHILORVWXY/HB1 |
Departure
| Time | 2026-05-07 20:13 |
|---|---|
| Airport | Bucholz Army Air Field (PKWA) |
Arrival
| Time | 2026-05-07 20:59 |
|---|---|
| Airport | Marshall Islands International Airport (PKMJ) |
| Time | Latitude | Longitude | Altitude | Speed | Heading |
|---|---|---|---|---|---|
| 2026-05-07 19:49 | 8.72737 | 167.74021 | -50 ft | 0 kts | 119° |
| 2026-05-07 20:07 | 8.72735 | 167.74024 | -34 ft | 2 kts | 119° |
| 2026-05-07 20:07 | 8.72725 | 167.74036 | -49 ft | 2 kts | 152° |
| 2026-05-07 20:07 | 8.72709 | 167.74031 | -38 ft | 3 kts | 217° |
| 2026-05-07 20:07 | 8.72690 | 167.74010 | -43 ft | 5 kts | 227° |
| 2026-05-07 20:08 | 8.72657 | 167.73977 | -36 ft | 8 kts | 223° |
| 2026-05-07 20:08 | 8.72626 | 167.73951 | -38 ft | 9 kts | 216° |
| 2026-05-07 20:08 | 8.72560 | 167.73918 | -37 ft | 12 kts | 191° |
| 2026-05-07 20:08 | 8.72474 | 167.73932 | -40 ft | 14 kts | 163° |
| 2026-05-07 20:09 | 8.72380 | 167.73946 | -39 ft | 13 kts | 205° |
| 2026-05-07 20:09 | 8.72340 | 167.73858 | -38 ft | 15 kts | 253° |
| 2026-05-07 20:09 | 8.72307 | 167.73749 | -54 ft | 17 kts | 252° |
| 2026-05-07 20:10 | 8.72228 | 167.73494 | -39 ft | 21 kts | 253° |
| 2026-05-07 20:10 | 8.72184 | 167.73348 | -42 ft | 23 kts | 252° |
| 2026-05-07 20:10 | 8.72133 | 167.73191 | -38 ft | 24 kts | 251° |
| 2026-05-07 20:10 | 8.72079 | 167.73024 | -34 ft | 26 kts | 253° |
| 2026-05-07 20:11 | 8.72026 | 167.72845 | -40 ft | 27 kts | 253° |
| 2026-05-07 20:11 | 8.71971 | 167.72660 | -46 ft | 29 kts | 252° |
| 2026-05-07 20:11 | 8.71910 | 167.72465 | -40 ft | 28 kts | 252° |
| 2026-05-07 20:11 | 8.71860 | 167.72313 | -43 ft | 10 kts | 244° |
| 2026-05-07 20:12 | 8.71794 | 167.72294 | -42 ft | 12 kts | 159° |
| 2026-05-07 20:12 | 8.71757 | 167.72339 | -38 ft | 9 kts | 79° |
| 2026-05-07 20:12 | 8.71766 | 167.72370 | -40 ft | 0 kts | 72° |
| 2026-05-07 20:13 | 8.71798 | 167.72472 | -35 ft | 52 kts | 72° |
| 2026-05-07 20:13 | 8.71992 | 167.73100 | -53 ft | 132 kts | 73° |
| 2026-05-07 20:13 | 8.72303 | 167.74135 | 431 ft | 164 kts | 72° |
| 2026-05-07 20:13 | 8.72633 | 167.75287 | 1385 ft | 171 kts | 75° |
| 2026-05-07 20:14 | 8.72940 | 167.76433 | 2389 ft | 172 kts | 76° |
| 2026-05-07 20:14 | 8.73222 | 167.77696 | 2818 ft | 197 kts | 83° |
| 2026-05-07 20:14 | 8.73137 | 167.79176 | 3187 ft | 225 kts | 105° |
| 2026-05-07 20:14 | 8.72473 | 167.80654 | 3801 ft | 242 kts | 114° |
| 2026-05-07 20:15 | 8.71694 | 167.82212 | 4552 ft | 251 kts | 115° |
| 2026-05-07 20:15 | 8.70899 | 167.83791 | 5468 ft | 254 kts | 115° |
| 2026-05-07 20:15 | 8.70084 | 167.85402 | 6334 ft | 258 kts | 115° |
| 2026-05-07 20:15 | 8.69257 | 167.87031 | 7095 ft | 264 kts | 116° |
| 2026-05-07 20:16 | 8.68412 | 167.88693 | 7906 ft | 267 kts | 116° |
| 2026-05-07 20:16 | 8.67552 | 167.90381 | 8667 ft | 273 kts | 116° |
| 2026-05-07 20:16 | 8.66683 | 167.92088 | 9414 ft | 279 kts | 117° |
| 2026-05-07 20:16 | 8.65783 | 167.93854 | 10149 ft | 284 kts | 117° |
| 2026-05-07 20:17 | 8.64849 | 167.95689 | 10575 ft | 302 kts | 117° |
| 2026-05-07 20:17 | 8.63863 | 167.97632 | 10999 ft | 317 kts | 117° |
| 2026-05-07 20:17 | 8.62846 | 167.99634 | 11632 ft | 323 kts | 117° |
| 2026-05-07 20:17 | 8.61810 | 168.01665 | 12369 ft | 327 kts | 117° |
| 2026-05-07 20:18 | 8.60759 | 168.03725 | 13072 ft | 332 kts | 117° |
| 2026-05-07 20:18 | 8.59705 | 168.05791 | 13748 ft | 337 kts | 117° |
| 2026-05-07 20:18 | 8.58621 | 168.07915 | 14339 ft | 342 kts | 117° |
| 2026-05-07 20:18 | 8.57524 | 168.10063 | 15027 ft | 344 kts | 117° |
| 2026-05-07 20:19 | 8.56421 | 168.12224 | 15652 ft | 348 kts | 117° |
| 2026-05-07 20:19 | 8.55303 | 168.14414 | 16239 ft | 352 kts | 117° |
| 2026-05-07 20:19 | 8.54176 | 168.16620 | 16857 ft | 355 kts | 117° |
| 2026-05-07 20:19 | 8.53036 | 168.18854 | 17474 ft | 358 kts | 118° |
| 2026-05-07 20:20 | 8.51898 | 168.21081 | 18151 ft | 358 kts | 118° |
| 2026-05-07 20:20 | 8.50761 | 168.23306 | 18592 ft | 363 kts | 118° |
| 2026-05-07 20:20 | 8.49596 | 168.25586 | 19071 ft | 366 kts | 118° |
| 2026-05-07 20:20 | 8.48421 | 168.27883 | 19559 ft | 368 kts | 118° |
| 2026-05-07 20:21 | 8.47241 | 168.30193 | 20033 ft | 371 kts | 119° |
| 2026-05-07 20:21 | 8.46047 | 168.32528 | 20495 ft | 374 kts | 118° |
| 2026-05-07 20:21 | 8.44847 | 168.34876 | 20950 ft | 378 kts | 118° |
| 2026-05-07 20:21 | 8.43648 | 168.37217 | 21416 ft | 380 kts | 118° |
| 2026-05-07 20:22 | 8.42429 | 168.39600 | 21877 ft | 383 kts | 118° |
| 2026-05-07 20:22 | 8.41198 | 168.42007 | 22317 ft | 386 kts | 118° |
| 2026-05-07 20:22 | 8.39960 | 168.44426 | 22755 ft | 390 kts | 118° |
| 2026-05-07 20:22 | 8.38723 | 168.46840 | 23206 ft | 392 kts | 120° |
| 2026-05-07 20:23 | 8.37464 | 168.49299 | 23621 ft | 395 kts | 119° |
| 2026-05-07 20:23 | 8.36195 | 168.51778 | 23991 ft | 398 kts | 119° |
| 2026-05-07 20:23 | 8.34920 | 168.54268 | 24370 ft | 400 kts | 118° |
| 2026-05-07 20:23 | 8.33635 | 168.56774 | 24748 ft | 402 kts | 120° |
| 2026-05-07 20:24 | 8.32345 | 168.59292 | 25136 ft | 404 kts | 119° |
| 2026-05-07 20:24 | 8.31047 | 168.61825 | 25507 ft | 407 kts | 118° |
| 2026-05-07 20:24 | 8.29743 | 168.64372 | 25858 ft | 410 kts | 119° |
| 2026-05-07 20:24 | 8.28554 | 168.66950 | 26233 ft | 412 kts | 117° |
| 2026-05-07 20:25 | 8.27349 | 168.69585 | 26606 ft | 414 kts | 116° |
| 2026-05-07 20:25 | 8.26130 | 168.72233 | 26938 ft | 417 kts | 117° |
| 2026-05-07 20:25 | 8.24901 | 168.74899 | 27296 ft | 419 kts | 116° |
| 2026-05-07 20:25 | 8.23667 | 168.77573 | 27651 ft | 421 kts | 118° |
| 2026-05-07 20:26 | 8.22426 | 168.80258 | 27995 ft | 423 kts | 118° |
| 2026-05-07 20:26 | 8.21176 | 168.82964 | 28329 ft | 426 kts | 117° |
| 2026-05-07 20:26 | 8.19917 | 168.85688 | 28657 ft | 428 kts | 117° |
| 2026-05-07 20:26 | 8.18675 | 168.88373 | 28900 ft | 432 kts | 117° |
| 2026-05-07 20:27 | 8.17395 | 168.91142 | 28916 ft | 435 kts | 116° |
| 2026-05-07 20:27 | 8.14845 | 168.96665 | 28915 ft | 433 kts | 116° |
| 2026-05-07 20:28 | 8.12293 | 169.02180 | 28916 ft | 434 kts | 117° |
| 2026-05-07 20:28 | 8.09743 | 169.07693 | 28916 ft | 432 kts | 116° |
| 2026-05-07 20:29 | 8.07207 | 169.13169 | 28922 ft | 433 kts | 116° |
| 2026-05-07 20:29 | 8.04655 | 169.18678 | 28912 ft | 433 kts | 117° |
| 2026-05-07 20:30 | 8.02100 | 169.24193 | 28912 ft | 433 kts | 117° |
| 2026-05-07 20:30 | 7.99562 | 169.29672 | 28915 ft | 433 kts | 117° |
| 2026-05-07 20:31 | 7.97011 | 169.35174 | 28918 ft | 433 kts | 118° |
| 2026-05-07 20:31 | 7.94455 | 169.40682 | 28917 ft | 433 kts | 117° |
| 2026-05-07 20:32 | 7.91900 | 169.46187 | 28919 ft | 433 kts | 117° |
| 2026-05-07 20:32 | 7.89353 | 169.51676 | 28915 ft | 434 kts | 117° |
| 2026-05-07 20:33 | 7.86797 | 169.57178 | 28890 ft | 426 kts | 117° |
| 2026-05-07 20:33 | 7.85555 | 169.59854 | 28655 ft | 417 kts | 116° |
| 2026-05-07 20:33 | 7.84326 | 169.62498 | 28157 ft | 415 kts | 117° |
| 2026-05-07 20:33 | 7.83116 | 169.65101 | 27634 ft | 414 kts | 117° |
| 2026-05-07 20:34 | 7.81895 | 169.67724 | 27178 ft | 411 kts | 117° |
| 2026-05-07 20:34 | 7.80685 | 169.70329 | 26739 ft | 408 kts | 117° |
| 2026-05-07 20:34 | 7.79483 | 169.72913 | 26309 ft | 405 kts | 118° |
| 2026-05-07 20:34 | 7.78287 | 169.75482 | 25879 ft | 403 kts | 116° |
| 2026-05-07 20:35 | 7.77101 | 169.78036 | 25458 ft | 401 kts | 116° |
| 2026-05-07 20:35 | 7.75923 | 169.80567 | 25039 ft | 399 kts | 117° |
| 2026-05-07 20:35 | 7.74758 | 169.83069 | 24636 ft | 397 kts | 116° |
| 2026-05-07 20:35 | 7.73586 | 169.85587 | 24222 ft | 395 kts | 116° |
| 2026-05-07 20:36 | 7.72417 | 169.88098 | 23813 ft | 395 kts | 116° |
| 2026-05-07 20:36 | 7.71247 | 169.90611 | 23376 ft | 395 kts | 116° |
| 2026-05-07 20:36 | 7.70081 | 169.93114 | 22891 ft | 393 kts | 116° |
| 2026-05-07 20:36 | 7.68937 | 169.95571 | 22481 ft | 390 kts | 116° |
| 2026-05-07 20:37 | 7.67786 | 169.98041 | 22078 ft | 387 kts | 116° |
| 2026-05-07 20:37 | 7.66645 | 170.00492 | 21679 ft | 384 kts | 116° |
| 2026-05-07 20:37 | 7.65515 | 170.02914 | 21279 ft | 381 kts | 116° |
| 2026-05-07 20:37 | 7.64396 | 170.05316 | 20883 ft | 375 kts | 116° |
| 2026-05-07 20:38 | 7.63308 | 170.07651 | 20503 ft | 369 kts | 115° |
| 2026-05-07 20:38 | 7.62210 | 170.10005 | 20120 ft | 363 kts | 115° |
| 2026-05-07 20:38 | 7.61158 | 170.12263 | 19752 ft | 358 kts | 115° |
| 2026-05-07 20:38 | 7.60103 | 170.14522 | 19381 ft | 353 kts | 115° |
| 2026-05-07 20:39 | 7.59064 | 170.16751 | 19015 ft | 347 kts | 115° |
| 2026-05-07 20:39 | 7.58043 | 170.18939 | 18660 ft | 342 kts | 115° |
| 2026-05-07 20:39 | 7.57034 | 170.21101 | 18304 ft | 338 kts | 115° |
| 2026-05-07 20:39 | 7.56041 | 170.23226 | 17921 ft | 333 kts | 114° |
| 2026-05-07 20:40 | 7.55065 | 170.25320 | 17556 ft | 328 kts | 114° |
| 2026-05-07 20:40 | 7.54106 | 170.27373 | 17204 ft | 326 kts | 114° |
| 2026-05-07 20:40 | 7.53143 | 170.29435 | 16859 ft | 324 kts | 114° |
| 2026-05-07 20:40 | 7.52183 | 170.31490 | 16514 ft | 322 kts | 114° |
| 2026-05-07 20:41 | 7.51233 | 170.33526 | 16176 ft | 320 kts | 114° |
| 2026-05-07 20:41 | 7.50287 | 170.35550 | 15844 ft | 318 kts | 114° |
| 2026-05-07 20:41 | 7.49347 | 170.37563 | 15513 ft | 316 kts | 114° |
| 2026-05-07 20:41 | 7.48412 | 170.39564 | 15174 ft | 314 kts | 114° |
| 2026-05-07 20:42 | 7.47495 | 170.41526 | 14850 ft | 312 kts | 114° |
| 2026-05-07 20:42 | 7.46572 | 170.43501 | 14516 ft | 310 kts | 114° |
| 2026-05-07 20:42 | 7.45651 | 170.45472 | 14182 ft | 309 kts | 113° |
| 2026-05-07 20:42 | 7.44737 | 170.47426 | 13862 ft | 307 kts | 113° |
| 2026-05-07 20:43 | 7.43830 | 170.49368 | 13508 ft | 306 kts | 113° |
| 2026-05-07 20:43 | 7.42925 | 170.51302 | 13148 ft | 304 kts | 114° |
| 2026-05-07 20:43 | 7.42034 | 170.53206 | 12817 ft | 302 kts | 113° |
| 2026-05-07 20:43 | 7.41143 | 170.55111 | 12489 ft | 299 kts | 113° |
| 2026-05-07 20:44 | 7.40261 | 170.56997 | 12178 ft | 296 kts | 114° |
| 2026-05-07 20:44 | 7.39386 | 170.58867 | 11855 ft | 294 kts | 114° |
| 2026-05-07 20:44 | 7.38517 | 170.60724 | 11539 ft | 292 kts | 114° |
| 2026-05-07 20:44 | 7.37655 | 170.62566 | 11231 ft | 289 kts | 114° |
| 2026-05-07 20:45 | 7.36800 | 170.64394 | 10923 ft | 287 kts | 114° |
| 2026-05-07 20:45 | 7.35960 | 170.66188 | 10622 ft | 285 kts | 114° |
| 2026-05-07 20:45 | 7.35115 | 170.67991 | 10308 ft | 284 kts | 114° |
| 2026-05-07 20:45 | 7.34278 | 170.69780 | 10084 ft | 279 kts | 114° |
| 2026-05-07 20:46 | 7.33463 | 170.71519 | 9902 ft | 272 kts | 114° |
| 2026-05-07 20:46 | 7.32661 | 170.73234 | 9601 ft | 270 kts | 113° |
| 2026-05-07 20:46 | 7.31862 | 170.74941 | 9265 ft | 268 kts | 113° |
| 2026-05-07 20:46 | 7.31078 | 170.76615 | 8970 ft | 266 kts | 113° |
| 2026-05-07 20:47 | 7.30290 | 170.78294 | 8684 ft | 264 kts | 113° |
| 2026-05-07 20:47 | 7.29509 | 170.79962 | 8378 ft | 262 kts | 114° |
| 2026-05-07 20:47 | 7.28733 | 170.81619 | 8095 ft | 260 kts | 113° |
| 2026-05-07 20:47 | 7.27744 | 170.83137 | 7771 ft | 261 kts | 131° |
| 2026-05-07 20:48 | 7.26478 | 170.84447 | 7500 ft | 258 kts | 131° |
| 2026-05-07 20:48 | 7.25254 | 170.85727 | 7218 ft | 255 kts | 131° |
| 2026-05-07 20:48 | 7.24022 | 170.87010 | 6979 ft | 252 kts | 131° |
| 2026-05-07 20:48 | 7.22804 | 170.88274 | 6712 ft | 250 kts | 131° |
| 2026-05-07 20:49 | 7.21598 | 170.89524 | 6450 ft | 247 kts | 131° |
| 2026-05-07 20:49 | 7.20402 | 170.90764 | 6175 ft | 246 kts | 131° |
| 2026-05-07 20:49 | 7.19216 | 170.91992 | 5889 ft | 244 kts | 131° |
| 2026-05-07 20:49 | 7.18040 | 170.93210 | 5622 ft | 241 kts | 131° |
| 2026-05-07 20:50 | 7.16878 | 170.94414 | 5413 ft | 237 kts | 131° |
| 2026-05-07 20:50 | 7.15750 | 170.95582 | 5144 ft | 234 kts | 131° |
| 2026-05-07 20:50 | 7.14628 | 170.96744 | 4866 ft | 228 kts | 130° |
| 2026-05-07 20:50 | 7.13539 | 170.97871 | 4651 ft | 220 kts | 130° |
| 2026-05-07 20:51 | 7.12488 | 170.98961 | 4421 ft | 213 kts | 130° |
| 2026-05-07 20:51 | 7.11469 | 171.00011 | 4210 ft | 204 kts | 130° |
| 2026-05-07 20:51 | 7.10522 | 171.00992 | 4032 ft | 192 kts | 129° |
| 2026-05-07 20:51 | 7.09626 | 171.01919 | 3905 ft | 177 kts | 129° |
| 2026-05-07 20:52 | 7.08804 | 171.02770 | 3805 ft | 165 kts | 128° |
| 2026-05-07 20:52 | 7.08005 | 171.03604 | 3740 ft | 166 kts | 127° |
| 2026-05-07 20:52 | 7.07234 | 171.04444 | 3665 ft | 165 kts | 127° |
| 2026-05-07 20:52 | 7.06445 | 171.05303 | 3582 ft | 164 kts | 127° |
| 2026-05-07 20:53 | 7.05680 | 171.06134 | 3492 ft | 163 kts | 127° |
| 2026-05-07 20:53 | 7.04907 | 171.06974 | 3407 ft | 163 kts | 127° |
| 2026-05-07 20:53 | 7.04136 | 171.07810 | 3315 ft | 163 kts | 127° |
| 2026-05-07 20:53 | 7.03364 | 171.08649 | 3218 ft | 163 kts | 127° |
| 2026-05-07 20:54 | 7.02714 | 171.09559 | 3080 ft | 157 kts | 104° |
| 2026-05-07 20:54 | 7.02662 | 171.10628 | 2948 ft | 155 kts | 81° |
| 2026-05-07 20:54 | 7.02852 | 171.11687 | 2755 ft | 155 kts | 79° |
| 2026-05-07 20:54 | 7.03065 | 171.12747 | 2573 ft | 151 kts | 79° |
| 2026-05-07 20:55 | 7.03186 | 171.13400 | 2505 ft | 137 kts | 82° |
| 2026-05-07 20:55 | 7.03358 | 171.14331 | 2431 ft | 134 kts | 79° |
| 2026-05-07 20:55 | 7.03566 | 171.15243 | 2319 ft | 133 kts | 77° |
| 2026-05-07 20:55 | 7.03785 | 171.16142 | 2142 ft | 131 kts | 76° |
| 2026-05-07 20:56 | 7.04004 | 171.17035 | 1968 ft | 131 kts | 76° |
| 2026-05-07 20:56 | 7.04225 | 171.17929 | 1748 ft | 133 kts | 76° |
| 2026-05-07 20:56 | 7.04469 | 171.18840 | 1514 ft | 133 kts | 75° |
| 2026-05-07 20:56 | 7.04715 | 171.19726 | 1311 ft | 133 kts | 75° |
| 2026-05-07 20:57 | 7.04951 | 171.20630 | 1070 ft | 134 kts | 76° |
| 2026-05-07 20:57 | 7.05154 | 171.21540 | 860 ft | 134 kts | 78° |
| 2026-05-07 20:57 | 7.05355 | 171.22460 | 638 ft | 132 kts | 76° |
| 2026-05-07 20:57 | 7.05539 | 171.23338 | 566 ft | 128 kts | 76° |
| 2026-05-07 20:58 | 7.05785 | 171.24238 | 400 ft | 136 kts | 77° |
| 2026-05-07 20:58 | 7.06019 | 171.25199 | 251 ft | 143 kts | 77° |
| 2026-05-07 20:58 | 7.06243 | 171.26142 | 54 ft | 138 kts | 77° |
| 2026-05-07 20:58 | 7.06448 | 171.27003 | 7 ft | 113 kts | 75° |
| 2026-05-07 20:59 | 7.06590 | 171.27577 | 3 ft | 52 kts | 76° |
| 2026-05-07 20:59 | 7.06677 | 171.27910 | 4 ft | 50 kts | 75° |
| 2026-05-07 20:59 | 7.06728 | 171.28125 | 5 ft | 16 kts | 74° |
| 2026-05-07 20:59 | 7.06751 | 171.28218 | 7 ft | 6 kts | 46° |
| 2026-05-07 21:00 | 7.06783 | 171.28218 | 7 ft | 1 kts | 345° |
| 2026-05-07 21:00 | 7.06794 | 171.28215 | 7 ft | 2 kts | 343° |
| 2026-05-07 21:00 | 7.06813 | 171.28203 | 8 ft | 4 kts | 311° |
| 2026-05-07 21:00 | 7.06817 | 171.28167 | 7 ft | 6 kts | 258° |
| 2026-05-07 21:01 | 7.06834 | 171.28142 | 7 ft | 4 kts | 353° |
| 2026-05-07 21:01 | 7.06849 | 171.28149 | 6 ft | 2 kts | 43° |
| 2026-05-07 21:01 | 7.06852 | 171.28174 | 6 ft | 4 kts | 110° |
| 2026-05-07 21:01 | 7.06842 | 171.28189 | 8 ft | 0 kts | 124° |